sensor_id;sensor_type;location;lat;lon;timestamp;P1;durP1;ratioP1;P2;durP2;ratioP2
65039;SDS011;51606;45.000;38.612;2022-09-09T04:31:21;4.43;;;2.20;;
65039;SDS011;51606;45.000;38.612;2022-09-09T04:33:52;6.28;;;2.85;;
65039;SDS011;51606;45.000;38.612;2022-09-09T04:36:18;8.70;;;2.50;;
65039;SDS011;51606;45.000;38.612;2022-09-09T04:38:47;3.60;;;2.50;;
65039;SDS011;51606;45.000;38.612;2022-09-09T04:41:15;4.82;;;2.40;;
65039;SDS011;51606;45.000;38.612;2022-09-09T04:43:43;7.45;;;3.28;;
65039;SDS011;51606;45.000;38.612;2022-09-09T04:46:11;8.23;;;3.30;;
65039;SDS011;51606;45.000;38.612;2022-09-09T04:48:37;7.60;;;3.03;;
65039;SDS011;51606;45.000;38.612;2022-09-09T04:51:08;6.38;;;3.45;;
65039;SDS011;51606;45.000;38.612;2022-09-09T04:53:36;6.22;;;3.15;;
65039;SDS011;51606;45.000;38.612;2022-09-09T04:56:14;6.00;;;3.40;;
65039;SDS011;51606;45.000;38.612;2022-09-09T04:58:50;5.25;;;2.78;;
65039;SDS011;51606;45.000;38.612;2022-09-09T05:01:18;18.90;;;8.27;;
65039;SDS011;51606;45.000;38.612;2022-09-09T05:03:47;36.00;;;13.27;;
65039;SDS011;51606;45.000;38.612;2022-09-09T05:06:18;43.92;;;12.98;;
65039;SDS011;51606;45.000;38.612;2022-09-09T05:08:48;31.45;;;11.05;;
65039;SDS011;51606;45.000;38.612;2022-09-09T05:11:28;15.48;;;6.13;;
65039;SDS011;51606;45.000;38.612;2022-09-09T05:14:08;19.42;;;6.95;;
65039;SDS011;51606;45.000;38.612;2022-09-09T05:16:35;10.35;;;4.47;;
65039;SDS011;51606;45.000;38.612;2022-09-09T05:19:01;10.52;;;4.30;;
65039;SDS011;51606;45.000;38.612;2022-09-09T05:21:40;13.85;;;5.28;;
65039;SDS011;51606;45.000;38.612;2022-09-09T05:24:07;13.88;;;4.75;;
65039;SDS011;51606;45.000;38.612;2022-09-09T05:26:34;19.65;;;9.85;;
65039;SDS011;51606;45.000;38.612;2022-09-09T05:29:01;47.65;;;13.63;;
65039;SDS011;51606;45.000;38.612;2022-09-09T05:31:30;22.30;;;7.88;;
65039;SDS011;51606;45.000;38.612;2022-09-09T05:33:59;17.02;;;5.88;;
65039;SDS011;51606;45.000;38.612;2022-09-09T05:36:25;9.48;;;4.60;;
65039;SDS011;51606;45.000;38.612;2022-09-09T05:38:55;18.73;;;4.18;;
65039;SDS011;51606;45.000;38.612;2022-09-09T05:41:21;11.77;;;4.38;;
65039;SDS011;51606;45.000;38.612;2022-09-09T05:43:50;14.00;;;4.03;;
65039;SDS011;51606;45.000;38.612;2022-09-09T05:46:18;7.88;;;3.53;;
65039;SDS011;51606;45.000;38.612;2022-09-09T05:48:49;6.05;;;3.60;;
65039;SDS011;51606;45.000;38.612;2022-09-09T05:51:19;9.27;;;3.85;;
65039;SDS011;51606;45.000;38.612;2022-09-09T05:53:48;11.52;;;5.15;;
65039;SDS011;51606;45.000;38.612;2022-09-09T05:56:15;8.35;;;3.53;;
65039;SDS011;51606;45.000;38.612;2022-09-09T05:58:48;18.80;;;7.80;;
65039;SDS011;51606;45.000;38.612;2022-09-09T06:01:21;16.92;;;7.88;;
65039;SDS011;51606;45.000;38.612;2022-09-09T06:03:50;16.45;;;7.93;;
65039;SDS011;51606;45.000;38.612;2022-09-09T06:06:23;30.63;;;7.90;;
65039;SDS011;51606;45.000;38.612;2022-09-09T06:08:57;18.45;;;7.53;;
65039;SDS011;51606;45.000;38.612;2022-09-09T06:11:26;14.73;;;5.72;;
65039;SDS011;51606;45.000;38.612;2022-09-09T06:13:58;11.85;;;4.57;;
65039;SDS011;51606;45.000;38.612;2022-09-09T06:16:26;9.63;;;3.20;;
65039;SDS011;51606;45.000;38.612;2022-09-09T06:18:55;4.75;;;2.45;;
65039;SDS011;51606;45.000;38.612;2022-09-09T06:21:24;9.95;;;2.33;;
65039;SDS011;51606;45.000;38.612;2022-09-09T06:24:05;11.27;;;2.28;;
65039;SDS011;51606;45.000;38.612;2022-09-09T06:26:34;7.00;;;1.90;;
65039;SDS011;51606;45.000;38.612;2022-09-09T06:29:03;4.40;;;2.08;;
65039;SDS011;51606;45.000;38.612;2022-09-09T06:31:31;14.30;;;2.03;;
65039;SDS011;51606;45.000;38.612;2022-09-09T06:34:06;9.38;;;1.77;;
65039;SDS011;51606;45.000;38.612;2022-09-09T06:36:36;14.45;;;1.75;;
65039;SDS011;51606;45.000;38.612;2022-09-09T06:39:05;14.77;;;2.03;;
65039;SDS011;51606;45.000;38.612;2022-09-09T06:41:33;10.18;;;2.67;;
65039;SDS011;51606;45.000;38.612;2022-09-09T06:44:02;11.52;;;2.10;;
65039;SDS011;51606;45.000;38.612;2022-09-09T06:46:39;15.45;;;2.35;;
65039;SDS011;51606;45.000;38.612;2022-09-09T06:49:07;7.63;;;2.58;;
65039;SDS011;51606;45.000;38.612;2022-09-09T06:51:36;5.70;;;2.38;;
65039;SDS011;51606;45.000;38.612;2022-09-09T06:54:10;2.92;;;1.60;;
65039;SDS011;51606;45.000;38.612;2022-09-09T06:56:41;4.70;;;1.92;;
65039;SDS011;51606;45.000;38.612;2022-09-09T06:59:27;6.57;;;1.80;;
65039;SDS011;51606;45.000;38.612;2022-09-09T07:01:54;5.03;;;1.70;;
65039;SDS011;51606;45.000;38.612;2022-09-09T07:04:21;7.72;;;1.73;;
65039;SDS011;51606;45.000;38.612;2022-09-09T07:06:48;5.72;;;1.95;;
65039;SDS011;51606;45.000;38.612;2022-09-09T07:09:18;7.22;;;1.85;;
65039;SDS011;51606;45.000;38.612;2022-09-09T07:11:49;4.63;;;2.30;;
65039;SDS011;51606;45.000;38.612;2022-09-09T07:14:22;10.88;;;2.78;;
65039;SDS011;51606;45.000;38.612;2022-09-09T07:16:53;8.02;;;2.55;;
65039;SDS011;51606;45.000;38.612;2022-09-09T07:19:20;6.13;;;1.90;;
65039;SDS011;51606;45.000;38.612;2022-09-09T07:21:50;4.50;;;1.60;;
65039;SDS011;51606;45.000;38.612;2022-09-09T07:24:18;4.80;;;1.67;;
65039;SDS011;51606;45.000;38.612;2022-09-09T07:26:46;5.22;;;1.60;;
65039;SDS011;51606;45.000;38.612;2022-09-09T07:29:12;14.15;;;2.22;;
65039;SDS011;51606;45.000;38.612;2022-09-09T07:31:40;11.40;;;1.48;;
65039;SDS011;51606;45.000;38.612;2022-09-09T07:34:11;2.10;;;1.70;;
65039;SDS011;51606;45.000;38.612;2022-09-09T07:36:39;4.13;;;1.52;;
65039;SDS011;51606;45.000;38.612;2022-09-09T07:39:11;15.88;;;1.60;;
65039;SDS011;51606;45.000;38.612;2022-09-09T07:41:43;1.73;;;1.40;;
65039;SDS011;51606;45.000;38.612;2022-09-09T07:44:13;3.22;;;1.40;;
65039;SDS011;51606;45.000;38.612;2022-09-09T07:46:44;4.82;;;1.58;;
65039;SDS011;51606;45.000;38.612;2022-09-09T07:49:14;1.30;;;1.20;;
65039;SDS011;51606;45.000;38.612;2022-09-09T07:51:42;3.13;;;1.45;;
65039;SDS011;51606;45.000;38.612;2022-09-09T07:54:13;2.13;;;1.30;;
65039;SDS011;51606;45.000;38.612;2022-09-09T07:56:48;3.15;;;1.30;;
65039;SDS011;51606;45.000;38.612;2022-09-09T07:59:15;4.63;;;1.40;;
65039;SDS011;51606;45.000;38.612;2022-09-09T08:01:46;3.92;;;1.42;;
65039;SDS011;51606;45.000;38.612;2022-09-09T08:04:18;2.05;;;1.50;;
65039;SDS011;51606;45.000;38.612;2022-09-09T08:06:48;4.50;;;1.88;;
65039;SDS011;51606;45.000;38.612;2022-09-09T08:09:22;4.88;;;1.35;;
65039;SDS011;51606;45.000;38.612;2022-09-09T08:12:01;3.30;;;1.60;;
65039;SDS011;51606;45.000;38.612;2022-09-09T08:14:29;1.30;;;1.20;;
65039;SDS011;51606;45.000;38.612;2022-09-09T08:16:56;2.85;;;1.35;;
65039;SDS011;51606;45.000;38.612;2022-09-09T08:19:26;1.30;;;1.20;;
65039;SDS011;51606;45.000;38.612;2022-09-09T08:21:56;5.05;;;1.23;;
65039;SDS011;51606;45.000;38.612;2022-09-09T08:24:23;5.32;;;1.40;;
65039;SDS011;51606;45.000;38.612;2022-09-09T08:26:50;5.40;;;1.42;;
65039;SDS011;51606;45.000;38.612;2022-09-09T08:29:21;2.75;;;1.70;;
65039;SDS011;51606;45.000;38.612;2022-09-09T08:31:54;1.30;;;1.20;;
65039;SDS011;51606;45.000;38.612;2022-09-09T08:34:24;3.70;;;1.48;;
65039;SDS011;51606;45.000;38.612;2022-09-09T08:37:10;3.00;;;1.35;;
65039;SDS011;51606;45.000;38.612;2022-09-09T08:39:39;9.15;;;1.33;;
65039;SDS011;51606;45.000;38.612;2022-09-09T08:51:14;5.28;;;1.30;;
65039;SDS011;51606;45.000;38.612;2022-09-09T08:53:43;5.95;;;1.58;;
65039;SDS011;51606;45.000;38.612;2022-09-09T08:56:16;1.85;;;1.00;;
65039;SDS011;51606;45.000;38.612;2022-09-09T08:58:52;3.58;;;1.35;;
65039;SDS011;51606;45.000;38.612;2022-09-09T09:12:38;5.95;;;1.70;;
65039;SDS011;51606;45.000;38.612;2022-09-09T09:15:18;9.50;;;1.55;;
65039;SDS011;51606;45.000;38.612;2022-09-09T09:17:50;3.50;;;1.40;;
65039;SDS011;51606;45.000;38.612;2022-09-09T09:20:18;10.23;;;1.52;;
65039;SDS011;51606;45.000;38.612;2022-09-09T09:22:56;6.10;;;1.30;;
65039;SDS011;51606;45.000;38.612;2022-09-09T09:25:32;2.72;;;1.40;;
65039;SDS011;51606;45.000;38.612;2022-09-09T09:28:15;3.92;;;1.40;;
65039;SDS011;51606;45.000;38.612;2022-09-09T09:30:57;3.83;;;1.50;;
65039;SDS011;51606;45.000;38.612;2022-09-09T09:36:12;4.25;;;1.25;;
65039;SDS011;51606;45.000;38.612;2022-09-09T09:38:57;3.75;;;1.60;;
65039;SDS011;51606;45.000;38.612;2022-09-09T09:44:21;3.05;;;1.40;;
65039;SDS011;51606;45.000;38.612;2022-09-09T09:46:51;7.68;;;1.20;;
65039;SDS011;51606;45.000;38.612;2022-09-09T09:49:18;4.75;;;1.20;;
65039;SDS011;51606;45.000;38.612;2022-09-09T09:51:44;6.65;;;1.30;;
65039;SDS011;51606;45.000;38.612;2022-09-09T09:56:42;1.90;;;1.30;;
65039;SDS011;51606;45.000;38.612;2022-09-09T09:59:23;8.27;;;1.65;;
65039;SDS011;51606;45.000;38.612;2022-09-09T10:02:15;2.30;;;1.20;;
65039;SDS011;51606;45.000;38.612;2022-09-09T10:05:02;7.78;;;1.10;;
65039;SDS011;51606;45.000;38.612;2022-09-09T10:07:41;1.83;;;1.10;;
65039;SDS011;51606;45.000;38.612;2022-09-09T10:10:21;3.95;;;1.33;;
65039;SDS011;51606;45.000;38.612;2022-09-09T10:18:25;2.28;;;1.30;;
65039;SDS011;51606;45.000;38.612;2022-09-09T10:21:20;2.40;;;1.27;;
65039;SDS011;51606;45.000;38.612;2022-09-09T10:43:04;8.82;;;1.50;;
65039;SDS011;51606;45.000;38.612;2022-09-09T10:51:22;3.83;;;1.65;;
65039;SDS011;51606;45.000;38.612;2022-09-09T10:57:04;2.03;;;1.15;;
65039;SDS011;51606;45.000;38.612;2022-09-09T10:59:43;2.03;;;1.30;;
65039;SDS011;51606;45.000;38.612;2022-09-09T11:02:15;1.70;;;1.20;;
65039;SDS011;51606;45.000;38.612;2022-09-09T11:04:50;6.95;;;1.45;;
65039;SDS011;51606;45.000;38.612;2022-09-09T11:07:29;2.63;;;1.17;;
65039;SDS011;51606;45.000;38.612;2022-09-09T11:09:59;1.85;;;1.20;;
65039;SDS011;51606;45.000;38.612;2022-09-09T11:12:29;8.00;;;1.30;;
65039;SDS011;51606;45.000;38.612;2022-09-09T11:15:06;5.20;;;1.50;;
65039;SDS011;51606;45.000;38.612;2022-09-09T11:17:46;2.20;;;1.17;;
65039;SDS011;51606;45.000;38.612;2022-09-09T11:20:16;2.13;;;1.50;;
65039;SDS011;51606;45.000;38.612;2022-09-09T11:22:47;2.20;;;1.40;;
65039;SDS011;51606;45.000;38.612;2022-09-09T11:25:20;4.38;;;1.45;;
65039;SDS011;51606;45.000;38.612;2022-09-09T11:27:56;4.15;;;1.17;;
65039;SDS011;51606;45.000;38.612;2022-09-09T11:38:46;5.25;;;1.17;;
65039;SDS011;51606;45.000;38.612;2022-09-09T11:41:17;1.80;;;1.10;;
65039;SDS011;51606;45.000;38.612;2022-09-09T11:43:46;2.05;;;1.35;;
65039;SDS011;51606;45.000;38.612;2022-09-09T11:46:14;3.00;;;1.23;;
65039;SDS011;51606;45.000;38.612;2022-09-09T11:48:44;2.40;;;1.10;;
65039;SDS011;51606;45.000;38.612;2022-09-09T11:53:50;1.67;;;1.15;;
65039;SDS011;51606;45.000;38.612;2022-09-09T12:01:41;3.33;;;1.40;;
65039;SDS011;51606;45.000;38.612;2022-09-09T12:04:14;3.33;;;1.50;;
65039;SDS011;51606;45.000;38.612;2022-09-09T12:12:51;3.35;;;1.27;;
65039;SDS011;51606;45.000;38.612;2022-09-09T12:15:22;7.47;;;1.60;;
65039;SDS011;51606;45.000;38.612;2022-09-09T12:17:55;1.92;;;1.30;;
65039;SDS011;51606;45.000;38.612;2022-09-09T12:20:31;5.22;;;1.40;;
65039;SDS011;51606;45.000;38.612;2022-09-09T12:26:05;8.40;;;1.80;;
65039;SDS011;51606;45.000;38.612;2022-09-09T12:37:14;6.32;;;1.30;;
65039;SDS011;51606;45.000;38.612;2022-09-09T12:39:49;2.50;;;1.40;;
65039;SDS011;51606;45.000;38.612;2022-09-09T12:42:21;4.45;;;1.45;;
65039;SDS011;51606;45.000;38.612;2022-09-09T12:44:51;2.83;;;1.52;;
65039;SDS011;51606;45.000;38.612;2022-09-09T12:47:48;3.65;;;1.40;;
65039;SDS011;51606;45.000;38.612;2022-09-09T12:50:23;2.95;;;1.30;;
65039;SDS011;51606;45.000;38.612;2022-09-09T12:52:52;1.48;;;1.00;;
65039;SDS011;51606;45.000;38.612;2022-09-09T12:55:48;1.73;;;1.02;;
65039;SDS011;51606;45.000;38.612;2022-09-09T12:58:17;2.58;;;1.20;;
65039;SDS011;51606;45.000;38.612;2022-09-09T13:00:49;2.00;;;1.13;;
65039;SDS011;51606;45.000;38.612;2022-09-09T13:03:23;3.33;;;1.27;;
65039;SDS011;51606;45.000;38.612;2022-09-09T13:05:50;2.42;;;1.20;;
65039;SDS011;51606;45.000;38.612;2022-09-09T13:08:19;2.00;;;1.15;;
65039;SDS011;51606;45.000;38.612;2022-09-09T13:10:50;2.35;;;1.17;;
65039;SDS011;51606;45.000;38.612;2022-09-09T13:13:23;2.67;;;1.60;;
65039;SDS011;51606;45.000;38.612;2022-09-09T13:15:53;1.77;;;1.20;;
65039;SDS011;51606;45.000;38.612;2022-09-09T13:18:22;1.98;;;1.20;;
65039;SDS011;51606;45.000;38.612;2022-09-09T13:20:50;2.35;;;1.55;;
65039;SDS011;51606;45.000;38.612;2022-09-09T13:23:18;2.58;;;1.30;;
65039;SDS011;51606;45.000;38.612;2022-09-09T13:26:05;1.55;;;1.23;;
65039;SDS011;51606;45.000;38.612;2022-09-09T13:28:47;1.67;;;1.17;;
65039;SDS011;51606;45.000;38.612;2022-09-09T13:31:24;2.22;;;1.30;;
65039;SDS011;51606;45.000;38.612;2022-09-09T13:33:55;1.83;;;0.95;;
65039;SDS011;51606;45.000;38.612;2022-09-09T13:36:28;1.20;;;1.00;;
65039;SDS011;51606;45.000;38.612;2022-09-09T13:38:57;4.72;;;1.55;;
65039;SDS011;51606;45.000;38.612;2022-09-09T13:41:28;1.30;;;1.00;;
65039;SDS011;51606;45.000;38.612;2022-09-09T13:43:59;1.88;;;1.42;;
65039;SDS011;51606;45.000;38.612;2022-09-09T13:51:36;2.53;;;1.30;;
65039;SDS011;51606;45.000;38.612;2022-09-09T13:54:08;2.17;;;1.40;;
65039;SDS011;51606;45.000;38.612;2022-09-09T13:56:36;10.43;;;1.40;;
65039;SDS011;51606;45.000;38.612;2022-09-09T13:59:04;7.43;;;1.50;;
65039;SDS011;51606;45.000;38.612;2022-09-09T14:01:33;10.30;;;1.75;;
65039;SDS011;51606;45.000;38.612;2022-09-09T14:04:00;4.65;;;1.45;;
65039;SDS011;51606;45.000;38.612;2022-09-09T14:06:27;15.45;;;3.08;;
65039;SDS011;51606;45.000;38.612;2022-09-09T14:08:54;3.92;;;1.60;;
65039;SDS011;51606;45.000;38.612;2022-09-09T14:11:21;5.15;;;1.30;;
65039;SDS011;51606;45.000;38.612;2022-09-09T14:13:47;2.30;;;1.30;;
65039;SDS011;51606;45.000;38.612;2022-09-09T14:16:17;5.47;;;1.45;;
65039;SDS011;51606;45.000;38.612;2022-09-09T14:18:44;1.70;;;1.35;;
65039;SDS011;51606;45.000;38.612;2022-09-09T14:21:11;3.33;;;1.77;;
65039;SDS011;51606;45.000;38.612;2022-09-09T14:23:38;2.10;;;1.42;;
65039;SDS011;51606;45.000;38.612;2022-09-09T14:26:05;7.00;;;1.40;;
65039;SDS011;51606;45.000;38.612;2022-09-09T14:28:31;3.42;;;1.60;;
65039;SDS011;51606;45.000;38.612;2022-09-09T14:30:59;3.13;;;1.60;;
65039;SDS011;51606;45.000;38.612;2022-09-09T14:33:26;1.92;;;1.35;;
65039;SDS011;51606;45.000;38.612;2022-09-09T14:35:59;6.60;;;1.55;;
65039;SDS011;51606;45.000;38.612;2022-09-09T14:38:33;9.82;;;2.08;;
65039;SDS011;51606;45.000;38.612;2022-09-09T14:41:05;3.55;;;2.05;;
65039;SDS011;51606;45.000;38.612;2022-09-09T14:43:32;5.72;;;2.25;;
65039;SDS011;51606;45.000;38.612;2022-09-09T14:46:05;11.98;;;3.78;;
65039;SDS011;51606;45.000;38.612;2022-09-09T14:48:33;16.75;;;3.10;;
65039;SDS011;51606;45.000;38.612;2022-09-09T14:51:07;5.43;;;2.22;;
65039;SDS011;51606;45.000;38.612;2022-09-09T14:53:40;11.82;;;2.17;;
65039;SDS011;51606;45.000;38.612;2022-09-09T14:56:12;3.88;;;2.30;;
65039;SDS011;51606;45.000;38.612;2022-09-09T14:58:43;9.13;;;2.78;;
65039;SDS011;51606;45.000;38.612;2022-09-09T15:01:12;7.55;;;2.28;;
65039;SDS011;51606;45.000;38.612;2022-09-09T15:03:41;7.72;;;2.13;;
65039;SDS011;51606;45.000;38.612;2022-09-09T15:06:10;7.88;;;2.30;;
65039;SDS011;51606;45.000;38.612;2022-09-09T15:08:38;7.43;;;2.50;;
65039;SDS011;51606;45.000;38.612;2022-09-09T15:11:07;6.63;;;2.47;;
65039;SDS011;51606;45.000;38.612;2022-09-09T15:13:34;5.05;;;2.38;;
65039;SDS011;51606;45.000;38.612;2022-09-09T15:16:06;19.73;;;5.78;;
65039;SDS011;51606;45.000;38.612;2022-09-09T15:18:34;5.05;;;2.40;;
65039;SDS011;51606;45.000;38.612;2022-09-09T15:21:15;10.52;;;2.58;;
65039;SDS011;51606;45.000;38.612;2022-09-09T15:23:44;6.53;;;2.83;;
65039;SDS011;51606;45.000;38.612;2022-09-09T15:26:13;11.40;;;2.83;;
65039;SDS011;51606;45.000;38.612;2022-09-09T15:28:40;6.25;;;2.67;;
65039;SDS011;51606;45.000;38.612;2022-09-09T15:33:49;21.58;;;2.85;;
65039;SDS011;51606;45.000;38.612;2022-09-09T15:36:39;17.63;;;3.55;;
65039;SDS011;51606;45.000;38.612;2022-09-09T15:39:09;14.32;;;2.78;;
65039;SDS011;51606;45.000;38.612;2022-09-09T15:41:44;10.98;;;3.28;;
65039;SDS011;51606;45.000;38.612;2022-09-09T15:44:12;24.55;;;3.75;;
65039;SDS011;51606;45.000;38.612;2022-09-09T15:46:39;12.13;;;3.80;;
65039;SDS011;51606;45.000;38.612;2022-09-09T15:49:09;11.70;;;3.47;;
65039;SDS011;51606;45.000;38.612;2022-09-09T15:51:42;11.52;;;4.05;;
65039;SDS011;51606;45.000;38.612;2022-09-09T15:54:13;22.52;;;4.10;;
65039;SDS011;51606;45.000;38.612;2022-09-09T15:56:46;10.43;;;4.88;;
65039;SDS011;51606;45.000;38.612;2022-09-09T15:59:15;11.75;;;4.45;;
65039;SDS011;51606;45.000;38.612;2022-09-09T16:01:42;7.25;;;3.65;;
65039;SDS011;51606;45.000;38.612;2022-09-09T16:04:09;9.85;;;4.22;;
65039;SDS011;51606;45.000;38.612;2022-09-09T16:06:35;25.05;;;7.90;;
65039;SDS011;51606;45.000;38.612;2022-09-09T16:09:03;19.02;;;5.60;;
65039;SDS011;51606;45.000;38.612;2022-09-09T16:11:32;13.75;;;4.47;;
65039;SDS011;51606;45.000;38.612;2022-09-09T16:14:01;17.60;;;4.43;;
65039;SDS011;51606;45.000;38.612;2022-09-09T16:16:28;7.13;;;3.72;;
65039;SDS011;51606;45.000;38.612;2022-09-09T16:18:59;23.52;;;5.72;;
65039;SDS011;51606;45.000;38.612;2022-09-09T16:21:28;23.10;;;6.45;;
65039;SDS011;51606;45.000;38.612;2022-09-09T16:23:57;44.65;;;7.45;;
65039;SDS011;51606;45.000;38.612;2022-09-09T16:26:25;14.85;;;5.40;;
65039;SDS011;51606;45.000;38.612;2022-09-09T16:28:53;24.90;;;5.90;;
65039;SDS011;51606;45.000;38.612;2022-09-09T16:31:24;52.20;;;8.25;;
65039;SDS011;51606;45.000;38.612;2022-09-09T16:34:12;41.78;;;6.18;;
65039;SDS011;51606;45.000;38.612;2022-09-09T16:36:40;58.58;;;5.78;;
65039;SDS011;51606;45.000;38.612;2022-09-09T16:39:09;47.25;;;4.97;;
65039;SDS011;51606;45.000;38.612;2022-09-09T16:41:38;39.17;;;5.00;;
65039;SDS011;51606;45.000;38.612;2022-09-09T16:44:07;12.55;;;3.80;;
65039;SDS011;51606;45.000;38.612;2022-09-09T16:46:35;26.67;;;6.15;;
65039;SDS011;51606;45.000;38.612;2022-09-09T16:49:08;30.00;;;4.25;;
65039;SDS011;51606;45.000;38.612;2022-09-09T16:51:37;26.17;;;4.55;;
65039;SDS011;51606;45.000;38.612;2022-09-09T16:54:06;37.45;;;10.50;;
65039;SDS011;51606;45.000;38.612;2022-09-09T16:56:38;53.88;;;14.68;;
65039;SDS011;51606;45.000;38.612;2022-09-09T16:59:09;50.50;;;9.02;;
65039;SDS011;51606;45.000;38.612;2022-09-09T17:01:38;40.67;;;9.10;;
65039;SDS011;51606;45.000;38.612;2022-09-09T17:04:10;32.72;;;7.57;;
65039;SDS011;51606;45.000;38.612;2022-09-09T17:06:47;25.95;;;7.18;;
65039;SDS011;51606;45.000;38.612;2022-09-09T17:09:18;18.73;;;5.38;;
65039;SDS011;51606;45.000;38.612;2022-09-09T17:11:45;42.17;;;5.53;;
65039;SDS011;51606;45.000;38.612;2022-09-09T17:14:14;26.73;;;5.35;;
65039;SDS011;51606;45.000;38.612;2022-09-09T17:16:41;37.95;;;4.38;;
65039;SDS011;51606;45.000;38.612;2022-09-09T17:19:09;28.90;;;4.35;;
65039;SDS011;51606;45.000;38.612;2022-09-09T17:21:36;33.72;;;5.25;;
65039;SDS011;51606;45.000;38.612;2022-09-09T17:24:03;54.95;;;6.40;;
65039;SDS011;51606;45.000;38.612;2022-09-09T17:26:30;42.92;;;5.65;;
65039;SDS011;51606;45.000;38.612;2022-09-09T17:28:59;49.08;;;5.93;;
65039;SDS011;51606;45.000;38.612;2022-09-09T17:31:26;40.58;;;6.80;;
65039;SDS011;51606;45.000;38.612;2022-09-09T17:33:54;54.17;;;6.90;;
65039;SDS011;51606;45.000;38.612;2022-09-09T17:36:34;46.75;;;7.05;;
65039;SDS011;51606;45.000;38.612;2022-09-09T17:39:02;60.88;;;6.07;;
65039;SDS011;51606;45.000;38.612;2022-09-09T17:41:31;58.85;;;6.53;;
65039;SDS011;51606;45.000;38.612;2022-09-09T17:44:03;64.90;;;6.25;;
65039;SDS011;51606;45.000;38.612;2022-09-09T17:46:31;32.05;;;4.57;;
65039;SDS011;51606;45.000;38.612;2022-09-09T17:49:03;27.50;;;5.47;;
65039;SDS011;51606;45.000;38.612;2022-09-09T17:51:32;31.95;;;5.75;;
65039;SDS011;51606;45.000;38.612;2022-09-09T17:54:00;34.78;;;5.57;;
65039;SDS011;51606;45.000;38.612;2022-09-09T17:56:33;34.35;;;4.18;;
65039;SDS011;51606;45.000;38.612;2022-09-09T17:59:01;19.05;;;4.78;;
65039;SDS011;51606;45.000;38.612;2022-09-09T18:01:29;22.00;;;4.45;;
65039;SDS011;51606;45.000;38.612;2022-09-09T18:03:59;21.02;;;4.90;;
65039;SDS011;51606;45.000;38.612;2022-09-09T18:06:28;34.80;;;5.03;;
65039;SDS011;51606;45.000;38.612;2022-09-09T18:08:59;23.95;;;4.95;;
65039;SDS011;51606;45.000;38.612;2022-09-09T18:11:29;21.42;;;4.50;;
65039;SDS011;51606;45.000;38.612;2022-09-09T18:13:58;12.07;;;4.47;;
65039;SDS011;51606;45.000;38.612;2022-09-09T18:16:27;16.02;;;4.05;;
65039;SDS011;51606;45.000;38.612;2022-09-09T18:18:55;8.80;;;3.78;;
65039;SDS011;51606;45.000;38.612;2022-09-09T18:21:26;7.05;;;3.80;;
65039;SDS011;51606;45.000;38.612;2022-09-09T18:23:54;25.25;;;4.63;;
65039;SDS011;51606;45.000;38.612;2022-09-09T18:26:21;13.75;;;4.68;;
65039;SDS011;51606;45.000;38.612;2022-09-09T18:28:52;17.95;;;3.92;;
65039;SDS011;51606;45.000;38.612;2022-09-09T18:31:23;13.05;;;4.50;;
65039;SDS011;51606;45.000;38.612;2022-09-09T18:33:51;11.05;;;4.43;;
65039;SDS011;51606;45.000;38.612;2022-09-09T18:36:20;8.40;;;3.50;;
65039;SDS011;51606;45.000;38.612;2022-09-09T18:38:51;26.02;;;4.30;;
65039;SDS011;51606;45.000;38.612;2022-09-09T18:41:22;35.60;;;4.65;;
65039;SDS011;51606;45.000;38.612;2022-09-09T18:43:51;15.93;;;5.70;;
65039;SDS011;51606;45.000;38.612;2022-09-09T18:46:23;29.13;;;5.22;;
65039;SDS011;51606;45.000;38.612;2022-09-09T18:48:51;22.10;;;3.75;;
65039;SDS011;51606;45.000;38.612;2022-09-09T18:51:19;20.15;;;4.00;;
65039;SDS011;51606;45.000;38.612;2022-09-09T18:53:53;16.33;;;3.97;;
65039;SDS011;51606;45.000;38.612;2022-09-09T18:56:25;11.45;;;3.90;;
65039;SDS011;51606;45.000;38.612;2022-09-09T18:58:53;8.23;;;3.58;;
65039;SDS011;51606;45.000;38.612;2022-09-09T19:01:22;37.60;;;3.88;;
65039;SDS011;51606;45.000;38.612;2022-09-09T19:03:49;12.07;;;3.85;;
65039;SDS011;51606;45.000;38.612;2022-09-09T19:06:18;17.25;;;4.32;;
65039;SDS011;51606;45.000;38.612;2022-09-09T19:08:46;34.55;;;4.05;;
65039;SDS011;51606;45.000;38.612;2022-09-09T19:11:13;11.35;;;3.42;;
65039;SDS011;51606;45.000;38.612;2022-09-09T19:13:43;23.30;;;3.45;;
65039;SDS011;51606;45.000;38.612;2022-09-09T19:16:21;8.50;;;3.10;;
65039;SDS011;51606;45.000;38.612;2022-09-09T19:18:49;6.40;;;2.85;;
65039;SDS011;51606;45.000;38.612;2022-09-09T19:21:18;13.73;;;3.25;;
65039;SDS011;51606;45.000;38.612;2022-09-09T19:23:57;18.75;;;3.28;;
65039;SDS011;51606;45.000;38.612;2022-09-09T19:26:27;8.48;;;2.97;;
65039;SDS011;51606;45.000;38.612;2022-09-09T19:28:57;9.10;;;2.63;;
65039;SDS011;51606;45.000;38.612;2022-09-09T19:31:24;5.97;;;3.13;;
65039;SDS011;51606;45.000;38.612;2022-09-09T19:33:52;23.90;;;3.33;;
65039;SDS011;51606;45.000;38.612;2022-09-09T19:36:23;20.50;;;3.90;;
65039;SDS011;51606;45.000;38.612;2022-09-09T19:38:54;21.15;;;2.90;;
65039;SDS011;51606;45.000;38.612;2022-09-09T19:41:22;5.60;;;2.33;;
65039;SDS011;51606;45.000;38.612;2022-09-09T19:43:51;7.68;;;2.95;;
65039;SDS011;51606;45.000;38.612;2022-09-09T19:46:22;6.47;;;3.00;;
65039;SDS011;51606;45.000;38.612;2022-09-09T19:48:48;14.13;;;3.05;;
65039;SDS011;51606;45.000;38.612;2022-09-09T19:51:16;9.98;;;3.17;;
65039;SDS011;51606;45.000;38.612;2022-09-09T19:53:47;17.30;;;3.40;;
65039;SDS011;51606;45.000;38.612;2022-09-09T19:56:18;15.80;;;3.67;;
65039;SDS011;51606;45.000;38.612;2022-09-09T19:58:47;5.72;;;2.63;;
65039;SDS011;51606;45.000;38.612;2022-09-09T20:01:15;7.70;;;2.35;;
65039;SDS011;51606;45.000;38.612;2022-09-09T20:03:47;11.57;;;3.28;;
65039;SDS011;51606;45.000;38.612;2022-09-09T20:06:17;6.45;;;3.00;;
65039;SDS011;51606;45.000;38.612;2022-09-09T20:08:45;19.45;;;2.90;;
65039;SDS011;51606;45.000;38.612;2022-09-09T20:11:13;5.15;;;3.08;;
65039;SDS011;51606;45.000;38.612;2022-09-09T20:13:41;12.75;;;2.30;;
65039;SDS011;51606;45.000;38.612;2022-09-09T20:16:12;3.97;;;2.50;;
65039;SDS011;51606;45.000;38.612;2022-09-09T20:18:40;6.32;;;2.78;;
65039;SDS011;51606;45.000;38.612;2022-09-09T20:21:12;4.97;;;2.83;;
65039;SDS011;51606;45.000;38.612;2022-09-09T20:23:41;6.03;;;2.97;;
65039;SDS011;51606;45.000;38.612;2022-09-09T20:26:10;10.63;;;3.08;;
65039;SDS011;51606;45.000;38.612;2022-09-09T20:28:39;7.90;;;3.00;;
65039;SDS011;51606;45.000;38.612;2022-09-09T20:31:17;13.68;;;3.20;;
65039;SDS011;51606;45.000;38.612;2022-09-09T20:33:46;6.28;;;3.35;;
65039;SDS011;51606;45.000;38.612;2022-09-09T20:36:16;5.28;;;2.35;;
65039;SDS011;51606;45.000;38.612;2022-09-09T20:38:48;6.85;;;2.75;;
65039;SDS011;51606;45.000;38.612;2022-09-09T20:41:18;15.07;;;3.40;;
65039;SDS011;51606;45.000;38.612;2022-09-09T20:46:12;32.50;;;3.15;;
65039;SDS011;51606;45.000;38.612;2022-09-09T20:48:39;5.57;;;2.30;;
65039;SDS011;51606;45.000;38.612;2022-09-09T20:51:06;12.60;;;3.55;;
65039;SDS011;51606;45.000;38.612;2022-09-09T20:53:35;9.80;;;2.67;;
65039;SDS011;51606;45.000;38.612;2022-09-09T20:56:02;6.20;;;3.22;;
65039;SDS011;51606;45.000;38.612;2022-09-09T20:58:30;6.85;;;2.50;;
65039;SDS011;51606;45.000;38.612;2022-09-09T21:00:57;5.68;;;2.70;;
65039;SDS011;51606;45.000;38.612;2022-09-09T21:03:26;11.10;;;3.03;;
65039;SDS011;51606;45.000;38.612;2022-09-09T21:05:57;13.65;;;3.47;;